sensor_id;sensor_type;location;lat;lon;timestamp;temperature;humidity
29713;DHT22;16623;53.632;10.016;2024-02-21T00:00:36;9.40;99.90
29713;DHT22;16623;53.632;10.016;2024-02-21T00:03:04;9.40;99.90
29713;DHT22;16623;53.632;10.016;2024-02-21T00:05:30;9.50;99.90
29713;DHT22;16623;53.632;10.016;2024-02-21T00:07:57;9.50;99.90
29713;DHT22;16623;53.632;10.016;2024-02-21T00:10:23;9.40;99.90
29713;DHT22;16623;53.632;10.016;2024-02-21T00:12:48;9.50;99.90
29713;DHT22;16623;53.632;10.016;2024-02-21T00:15:14;9.40;99.90
29713;DHT22;16623;53.632;10.016;2024-02-21T00:17:40;9.40;99.90
29713;DHT22;16623;53.632;10.016;2024-02-21T00:20:06;9.40;99.90
29713;DHT22;16623;53.632;10.016;2024-02-21T00:22:32;9.40;99.90
29713;DHT22;16623;53.632;10.016;2024-02-21T00:24:59;9.50;99.90
29713;DHT22;16623;53.632;10.016;2024-02-21T00:27:26;9.50;99.90
29713;DHT22;16623;53.632;10.016;2024-02-21T00:29:51;11.10;99.90
29713;DHT22;16623;53.632;10.016;2024-02-21T00:32:20;9.40;99.90
29713;DHT22;16623;53.632;10.016;2024-02-21T00:34:46;9.50;99.90
29713;DHT22;16623;53.632;10.016;2024-02-21T00:37:11;9.40;99.90
29713;DHT22;16623;53.632;10.016;2024-02-21T00:39:37;9.40;99.90
29713;DHT22;16623;53.632;10.016;2024-02-21T00:44:28;9.40;99.90
29713;DHT22;16623;53.632;10.016;2024-02-21T00:46:54;9.40;99.90
29713;DHT22;16623;53.632;10.016;2024-02-21T00:49:21;9.30;99.90
29713;DHT22;16623;53.632;10.016;2024-02-21T00:51:47;9.30;99.90
29713;DHT22;16623;53.632;10.016;2024-02-21T00:54:12;9.40;99.90
29713;DHT22;16623;53.632;10.016;2024-02-21T00:56:38;10.50;99.90
29713;DHT22;16623;53.632;10.016;2024-02-21T00:59:04;9.40;99.90
29713;DHT22;16623;53.632;10.016;2024-02-21T01:01:29;9.40;99.90
29713;DHT22;16623;53.632;10.016;2024-02-21T01:03:55;9.40;99.90
29713;DHT22;16623;53.632;10.016;2024-02-21T01:06:20;9.40;99.90
29713;DHT22;16623;53.632;10.016;2024-02-21T01:08:47;9.40;99.90
29713;DHT22;16623;53.632;10.016;2024-02-21T01:11:14;9.40;99.90
29713;DHT22;16623;53.632;10.016;2024-02-21T01:13:40;9.50;99.90
29713;DHT22;16623;53.632;10.016;2024-02-21T01:16:06;9.40;99.90
29713;DHT22;16623;53.632;10.016;2024-02-21T01:18:33;9.50;99.90
29713;DHT22;16623;53.632;10.016;2024-02-21T01:20:58;9.50;99.90
29713;DHT22;16623;53.632;10.016;2024-02-21T01:23:24;9.50;99.90
29713;DHT22;16623;53.632;10.016;2024-02-21T01:25:50;9.40;99.90
29713;DHT22;16623;53.632;10.016;2024-02-21T01:28:16;9.40;99.90
29713;DHT22;16623;53.632;10.016;2024-02-21T01:30:42;9.40;99.90
29713;DHT22;16623;53.632;10.016;2024-02-21T01:33:07;9.40;99.90
29713;DHT22;16623;53.632;10.016;2024-02-21T01:35:34;9.40;99.90
29713;DHT22;16623;53.632;10.016;2024-02-21T01:38:00;9.40;99.90
29713;DHT22;16623;53.632;10.016;2024-02-21T01:40:25;9.30;99.90
29713;DHT22;16623;53.632;10.016;2024-02-21T01:42:52;9.40;99.90
29713;DHT22;16623;53.632;10.016;2024-02-21T01:45:19;9.40;99.90
29713;DHT22;16623;53.632;10.016;2024-02-21T01:47:45;9.30;99.90
29713;DHT22;16623;53.632;10.016;2024-02-21T01:50:12;9.10;99.90
29713;DHT22;16623;53.632;10.016;2024-02-21T01:52:38;9.20;99.90
29713;DHT22;16623;53.632;10.016;2024-02-21T01:55:05;9.10;99.90
29713;DHT22;16623;53.632;10.016;2024-02-21T01:57:31;9.10;99.90
29713;DHT22;16623;53.632;10.016;2024-02-21T01:59:57;9.00;99.90
29713;DHT22;16623;53.632;10.016;2024-02-21T02:02:26;9.00;99.90
29713;DHT22;16623;53.632;10.016;2024-02-21T02:04:52;9.20;99.90
29713;DHT22;16623;53.632;10.016;2024-02-21T02:07:18;9.00;99.90
29713;DHT22;16623;53.632;10.016;2024-02-21T02:09:44;9.00;99.90
29713;DHT22;16623;53.632;10.016;2024-02-21T02:12:09;9.00;99.90
29713;DHT22;16623;53.632;10.016;2024-02-21T02:14:35;9.00;99.90
29713;DHT22;16623;53.632;10.016;2024-02-21T02:17:00;9.10;99.90
29713;DHT22;16623;53.632;10.016;2024-02-21T02:19:26;9.00;99.90
29713;DHT22;16623;53.632;10.016;2024-02-21T02:21:56;9.00;99.90
29713;DHT22;16623;53.632;10.016;2024-02-21T02:24:24;8.90;99.90
29713;DHT22;16623;53.632;10.016;2024-02-21T02:26:53;8.90;99.90
29713;DHT22;16623;53.632;10.016;2024-02-21T02:29:18;8.90;99.90
29713;DHT22;16623;53.632;10.016;2024-02-21T02:31:49;8.90;99.90
29713;DHT22;16623;53.632;10.016;2024-02-21T02:34:14;8.90;99.90
29713;DHT22;16623;53.632;10.016;2024-02-21T02:36:40;8.80;99.90
29713;DHT22;16623;53.632;10.016;2024-02-21T02:39:05;8.90;99.90
29713;DHT22;16623;53.632;10.016;2024-02-21T02:41:35;8.90;99.90
29713;DHT22;16623;53.632;10.016;2024-02-21T02:44:01;8.90;99.90
29713;DHT22;16623;53.632;10.016;2024-02-21T02:46:26;8.90;99.90
29713;DHT22;16623;53.632;10.016;2024-02-21T02:48:52;8.90;99.90
29713;DHT22;16623;53.632;10.016;2024-02-21T02:51:21;8.90;99.90
29713;DHT22;16623;53.632;10.016;2024-02-21T02:53:46;8.90;99.90
29713;DHT22;16623;53.632;10.016;2024-02-21T02:56:15;9.00;99.90
29713;DHT22;16623;53.632;10.016;2024-02-21T02:58:43;9.00;99.90
29713;DHT22;16623;53.632;10.016;2024-02-21T03:01:09;9.10;99.90
29713;DHT22;16623;53.632;10.016;2024-02-21T03:03:35;9.00;99.90
29713;DHT22;16623;53.632;10.016;2024-02-21T03:06:01;9.00;99.90
29713;DHT22;16623;53.632;10.016;2024-02-21T03:08:27;9.00;99.90
29713;DHT22;16623;53.632;10.016;2024-02-21T03:10:52;9.00;99.90
29713;DHT22;16623;53.632;10.016;2024-02-21T03:13:18;10.00;99.90
29713;DHT22;16623;53.632;10.016;2024-02-21T03:15:43;9.10;99.90
29713;DHT22;16623;53.632;10.016;2024-02-21T03:18:08;9.10;99.90
29713;DHT22;16623;53.632;10.016;2024-02-21T03:20:34;9.10;99.90
29713;DHT22;16623;53.632;10.016;2024-02-21T03:22:59;9.20;99.90
29713;DHT22;16623;53.632;10.016;2024-02-21T03:25:25;9.20;99.90
29713;DHT22;16623;53.632;10.016;2024-02-21T03:27:51;9.20;99.90
29713;DHT22;16623;53.632;10.016;2024-02-21T03:30:17;9.20;99.90
29713;DHT22;16623;53.632;10.016;2024-02-21T03:32:45;9.20;99.90
29713;DHT22;16623;53.632;10.016;2024-02-21T03:35:10;9.30;99.90
29713;DHT22;16623;53.632;10.016;2024-02-21T03:37:36;9.20;99.90
29713;DHT22;16623;53.632;10.016;2024-02-21T03:40:01;9.60;99.90
29713;DHT22;16623;53.632;10.016;2024-02-21T03:42:27;10.40;99.90
29713;DHT22;16623;53.632;10.016;2024-02-21T03:44:55;9.30;99.90
29713;DHT22;16623;53.632;10.016;2024-02-21T03:47:21;9.30;99.90
29713;DHT22;16623;53.632;10.016;2024-02-21T03:49:47;9.40;99.90
29713;DHT22;16623;53.632;10.016;2024-02-21T03:52:12;9.40;99.90
29713;DHT22;16623;53.632;10.016;2024-02-21T03:54:38;9.40;99.90
29713;DHT22;16623;53.632;10.016;2024-02-21T03:57:05;9.40;99.90
29713;DHT22;16623;53.632;10.016;2024-02-21T03:59:30;9.40;99.90
29713;DHT22;16623;53.632;10.016;2024-02-21T04:01:56;9.40;99.90
29713;DHT22;16623;53.632;10.016;2024-02-21T04:04:22;9.40;99.90
29713;DHT22;16623;53.632;10.016;2024-02-21T04:06:48;9.40;99.90
29713;DHT22;16623;53.632;10.016;2024-02-21T04:09:14;9.40;99.90
29713;DHT22;16623;53.632;10.016;2024-02-21T04:11:40;9.40;99.90
29713;DHT22;16623;53.632;10.016;2024-02-21T04:14:05;9.40;99.90
29713;DHT22;16623;53.632;10.016;2024-02-21T04:16:31;9.30;99.90
29713;DHT22;16623;53.632;10.016;2024-02-21T04:18:56;9.20;99.90
29713;DHT22;16623;53.632;10.016;2024-02-21T04:21:22;9.20;99.90
29713;DHT22;16623;53.632;10.016;2024-02-21T04:23:48;9.20;99.90
29713;DHT22;16623;53.632;10.016;2024-02-21T04:28:40;9.20;99.90
29713;DHT22;16623;53.632;10.016;2024-02-21T04:31:05;9.20;99.90
29713;DHT22;16623;53.632;10.016;2024-02-21T04:33:31;9.20;99.90
29713;DHT22;16623;53.632;10.016;2024-02-21T04:35:57;9.10;99.90
29713;DHT22;16623;53.632;10.016;2024-02-21T04:38:24;9.10;99.90
29713;DHT22;16623;53.632;10.016;2024-02-21T04:40:51;9.10;99.90
29713;DHT22;16623;53.632;10.016;2024-02-21T04:43:17;9.10;99.90
29713;DHT22;16623;53.632;10.016;2024-02-21T04:45:43;9.10;99.90
29713;DHT22;16623;53.632;10.016;2024-02-21T04:48:08;9.10;99.90
29713;DHT22;16623;53.632;10.016;2024-02-21T04:50:34;9.10;99.90
29713;DHT22;16623;53.632;10.016;2024-02-21T04:52:59;9.10;99.90
29713;DHT22;16623;53.632;10.016;2024-02-21T04:55:25;9.00;99.90
29713;DHT22;16623;53.632;10.016;2024-02-21T04:57:50;9.00;99.90
29713;DHT22;16623;53.632;10.016;2024-02-21T05:00:16;9.00;99.90
29713;DHT22;16623;53.632;10.016;2024-02-21T05:02:42;9.00;99.90
29713;DHT22;16623;53.632;10.016;2024-02-21T05:05:07;8.90;99.90
29713;DHT22;16623;53.632;10.016;2024-02-21T05:07:34;9.00;99.90
29713;DHT22;16623;53.632;10.016;2024-02-21T05:10:00;9.00;99.90
29713;DHT22;16623;53.632;10.016;2024-02-21T05:12:26;9.00;99.90
29713;DHT22;16623;53.632;10.016;2024-02-21T05:14:51;8.90;99.90
29713;DHT22;16623;53.632;10.016;2024-02-21T05:17:17;9.00;99.90
29713;DHT22;16623;53.632;10.016;2024-02-21T05:19:43;8.90;99.90
29713;DHT22;16623;53.632;10.016;2024-02-21T05:22:08;8.90;99.90
29713;DHT22;16623;53.632;10.016;2024-02-21T05:24:34;8.90;99.90
29713;DHT22;16623;53.632;10.016;2024-02-21T05:26:59;8.90;99.90
29713;DHT22;16623;53.632;10.016;2024-02-21T05:29:25;8.90;99.90
29713;DHT22;16623;53.632;10.016;2024-02-21T05:34:16;8.90;99.90
29713;DHT22;16623;53.632;10.016;2024-02-21T05:36:42;8.90;99.90
29713;DHT22;16623;53.632;10.016;2024-02-21T05:39:07;8.90;99.90
29713;DHT22;16623;53.632;10.016;2024-02-21T05:41:33;8.90;99.90
29713;DHT22;16623;53.632;10.016;2024-02-21T05:43:58;8.90;99.90
29713;DHT22;16623;53.632;10.016;2024-02-21T05:46:24;8.80;99.90
29713;DHT22;16623;53.632;10.016;2024-02-21T05:48:50;8.80;99.90
29713;DHT22;16623;53.632;10.016;2024-02-21T05:51:15;8.80;99.90
29713;DHT22;16623;53.632;10.016;2024-02-21T05:53:41;8.80;99.90
29713;DHT22;16623;53.632;10.016;2024-02-21T05:56:13;8.80;99.90
29713;DHT22;16623;53.632;10.016;2024-02-21T05:58:39;8.80;99.90
29713;DHT22;16623;53.632;10.016;2024-02-21T06:01:05;8.90;99.90
29713;DHT22;16623;53.632;10.016;2024-02-21T06:03:33;8.80;99.90
29713;DHT22;16623;53.632;10.016;2024-02-21T06:05:59;8.80;99.90
29713;DHT22;16623;53.632;10.016;2024-02-21T06:08:25;8.90;99.90
29713;DHT22;16623;53.632;10.016;2024-02-21T06:10:51;8.80;99.90
29713;DHT22;16623;53.632;10.016;2024-02-21T06:13:26;8.80;99.90
29713;DHT22;16623;53.632;10.016;2024-02-21T06:15:52;8.80;99.90
29713;DHT22;16623;53.632;10.016;2024-02-21T06:18:18;8.90;99.90
29713;DHT22;16623;53.632;10.016;2024-02-21T06:20:45;8.90;99.90
29713;DHT22;16623;53.632;10.016;2024-02-21T06:23:12;8.90;99.90
29713;DHT22;16623;53.632;10.016;2024-02-21T06:28:05;8.90;99.90
29713;DHT22;16623;53.632;10.016;2024-02-21T06:30:31;8.90;99.90
29713;DHT22;16623;53.632;10.016;2024-02-21T06:32:59;8.90;99.90
29713;DHT22;16623;53.632;10.016;2024-02-21T06:35:26;8.90;99.90
29713;DHT22;16623;53.632;10.016;2024-02-21T06:37:52;8.90;99.90
29713;DHT22;16623;53.632;10.016;2024-02-21T06:40:20;9.00;99.90
29713;DHT22;16623;53.632;10.016;2024-02-21T06:42:49;9.00;99.90
29713;DHT22;16623;53.632;10.016;2024-02-21T06:45:15;10.60;99.90
29713;DHT22;16623;53.632;10.016;2024-02-21T06:47:41;9.00;99.90
29713;DHT22;16623;53.632;10.016;2024-02-21T06:50:06;8.90;99.90
29713;DHT22;16623;53.632;10.016;2024-02-21T06:52:32;8.90;99.90
29713;DHT22;16623;53.632;10.016;2024-02-21T06:57:24;8.90;99.90
29713;DHT22;16623;53.632;10.016;2024-02-21T06:59:49;8.70;99.90
29713;DHT22;16623;53.632;10.016;2024-02-21T07:02:15;8.90;99.90
29713;DHT22;16623;53.632;10.016;2024-02-21T07:04:41;8.90;99.90
29713;DHT22;16623;53.632;10.016;2024-02-21T07:07:07;8.90;99.90
29713;DHT22;16623;53.632;10.016;2024-02-21T07:09:32;8.90;99.90
29713;DHT22;16623;53.632;10.016;2024-02-21T07:11:58;9.00;99.90
29713;DHT22;16623;53.632;10.016;2024-02-21T07:14:24;8.90;99.90
29713;DHT22;16623;53.632;10.016;2024-02-21T07:16:50;8.90;99.90
29713;DHT22;16623;53.632;10.016;2024-02-21T07:19:16;9.00;99.90
29713;DHT22;16623;53.632;10.016;2024-02-21T07:21:42;8.90;99.90
29713;DHT22;16623;53.632;10.016;2024-02-21T07:24:08;8.90;99.90
29713;DHT22;16623;53.632;10.016;2024-02-21T07:26:34;8.90;99.90
29713;DHT22;16623;53.632;10.016;2024-02-21T07:29:00;9.00;99.90
29713;DHT22;16623;53.632;10.016;2024-02-21T07:31:25;9.20;99.90
29713;DHT22;16623;53.632;10.016;2024-02-21T07:33:51;9.10;99.90
29713;DHT22;16623;53.632;10.016;2024-02-21T07:36:28;9.00;99.90
29713;DHT22;16623;53.632;10.016;2024-02-21T07:38:54;9.00;99.90
29713;DHT22;16623;53.632;10.016;2024-02-21T07:41:19;9.00;99.90
29713;DHT22;16623;53.632;10.016;2024-02-21T07:43:45;9.00;99.90
29713;DHT22;16623;53.632;10.016;2024-02-21T07:46:10;9.00;99.90
29713;DHT22;16623;53.632;10.016;2024-02-21T07:48:36;8.80;99.90
29713;DHT22;16623;53.632;10.016;2024-02-21T07:51:02;8.90;99.90
29713;DHT22;16623;53.632;10.016;2024-02-21T07:53:28;8.90;99.90
29713;DHT22;16623;53.632;10.016;2024-02-21T07:55:53;8.90;99.90
29713;DHT22;16623;53.632;10.016;2024-02-21T07:58:19;8.80;99.90
29713;DHT22;16623;53.632;10.016;2024-02-21T08:00:44;8.90;99.90
29713;DHT22;16623;53.632;10.016;2024-02-21T08:03:10;8.90;99.90
29713;DHT22;16623;53.632;10.016;2024-02-21T08:05:35;8.90;99.90
29713;DHT22;16623;53.632;10.016;2024-02-21T08:08:02;9.00;99.90
29713;DHT22;16623;53.632;10.016;2024-02-21T08:10:28;9.00;99.90
29713;DHT22;16623;53.632;10.016;2024-02-21T08:12:53;9.00;99.90
29713;DHT22;16623;53.632;10.016;2024-02-21T08:15:19;9.10;99.90
29713;DHT22;16623;53.632;10.016;2024-02-21T08:17:46;9.10;99.90
29713;DHT22;16623;53.632;10.016;2024-02-21T08:20:11;9.10;99.90
29713;DHT22;16623;53.632;10.016;2024-02-21T08:22:37;9.20;99.90
29713;DHT22;16623;53.632;10.016;2024-02-21T08:25:04;9.20;99.90
29713;DHT22;16623;53.632;10.016;2024-02-21T08:27:31;9.20;99.90
29713;DHT22;16623;53.632;10.016;2024-02-21T08:29:56;9.30;99.90
29713;DHT22;16623;53.632;10.016;2024-02-21T08:32:22;9.40;99.90
29713;DHT22;16623;53.632;10.016;2024-02-21T08:34:47;10.20;99.90
29713;DHT22;16623;53.632;10.016;2024-02-21T08:37:13;9.40;99.90
29713;DHT22;16623;53.632;10.016;2024-02-21T08:39:38;9.30;99.90
29713;DHT22;16623;53.632;10.016;2024-02-21T08:42:04;9.30;99.90
29713;DHT22;16623;53.632;10.016;2024-02-21T08:44:30;9.40;99.90
29713;DHT22;16623;53.632;10.016;2024-02-21T08:46:55;9.40;99.90
29713;DHT22;16623;53.632;10.016;2024-02-21T08:49:21;9.40;99.90
29713;DHT22;16623;53.632;10.016;2024-02-21T08:51:47;9.30;99.90
29713;DHT22;16623;53.632;10.016;2024-02-21T08:54:12;9.40;99.90
29713;DHT22;16623;53.632;10.016;2024-02-21T08:56:38;9.40;99.90
29713;DHT22;16623;53.632;10.016;2024-02-21T08:59:04;9.40;99.90
29713;DHT22;16623;53.632;10.016;2024-02-21T09:01:29;9.50;99.90
29713;DHT22;16623;53.632;10.016;2024-02-21T09:03:54;9.50;99.90
29713;DHT22;16623;53.632;10.016;2024-02-21T09:06:22;9.60;99.90
29713;DHT22;16623;53.632;10.016;2024-02-21T09:08:47;9.50;99.90
29713;DHT22;16623;53.632;10.016;2024-02-21T09:11:13;9.50;99.90
29713;DHT22;16623;53.632;10.016;2024-02-21T09:13:38;9.50;99.90
29713;DHT22;16623;53.632;10.016;2024-02-21T09:16:04;9.60;99.90
29713;DHT22;16623;53.632;10.016;2024-02-21T09:18:31;9.60;99.90
29713;DHT22;16623;53.632;10.016;2024-02-21T09:21:00;9.60;99.90
29713;DHT22;16623;53.632;10.016;2024-02-21T09:23:25;9.60;99.90
29713;DHT22;16623;53.632;10.016;2024-02-21T09:25:51;9.60;99.90
29713;DHT22;16623;53.632;10.016;2024-02-21T09:28:16;9.60;99.90
29713;DHT22;16623;53.632;10.016;2024-02-21T09:30:42;9.60;99.90
29713;DHT22;16623;53.632;10.016;2024-02-21T09:33:08;9.70;99.90
29713;DHT22;16623;53.632;10.016;2024-02-21T09:35:33;9.60;99.90
29713;DHT22;16623;53.632;10.016;2024-02-21T09:37:59;9.60;99.90
29713;DHT22;16623;53.632;10.016;2024-02-21T09:40:25;9.50;99.90
29713;DHT22;16623;53.632;10.016;2024-02-21T09:43:02;9.60;99.90
29713;DHT22;16623;53.632;10.016;2024-02-21T09:45:33;9.60;99.90
29713;DHT22;16623;53.632;10.016;2024-02-21T09:50:39;9.60;99.90
29713;DHT22;16623;53.632;10.016;2024-02-21T09:53:06;9.50;99.90
29713;DHT22;16623;53.632;10.016;2024-02-21T09:55:33;9.50;99.90
29713;DHT22;16623;53.632;10.016;2024-02-21T09:58:01;9.40;99.90
29713;DHT22;16623;53.632;10.016;2024-02-21T10:00:27;9.50;99.90
29713;DHT22;16623;53.632;10.016;2024-02-21T10:02:54;9.50;99.90
29713;DHT22;16623;53.632;10.016;2024-02-21T10:05:20;10.80;99.90
29713;DHT22;16623;53.632;10.016;2024-02-21T10:07:48;9.50;99.90
29713;DHT22;16623;53.632;10.016;2024-02-21T10:10:15;9.50;99.90
29713;DHT22;16623;53.632;10.016;2024-02-21T10:12:51;9.60;99.90
29713;DHT22;16623;53.632;10.016;2024-02-21T10:15:23;9.60;99.90
29713;DHT22;16623;53.632;10.016;2024-02-21T10:17:57;9.60;99.90
29713;DHT22;16623;53.632;10.016;2024-02-21T10:20:23;9.60;99.90
29713;DHT22;16623;53.632;10.016;2024-02-21T10:22:48;9.60;99.90
29713;DHT22;16623;53.632;10.016;2024-02-21T10:25:14;9.50;99.90
29713;DHT22;16623;53.632;10.016;2024-02-21T10:27:40;9.50;99.90
29713;DHT22;16623;53.632;10.016;2024-02-21T10:30:12;9.50;99.90
29713;DHT22;16623;53.632;10.016;2024-02-21T10:32:54;9.50;99.90
29713;DHT22;16623;53.632;10.016;2024-02-21T10:35:31;9.40;99.90
29713;DHT22;16623;53.632;10.016;2024-02-21T10:37:57;9.50;99.90
29713;DHT22;16623;53.632;10.016;2024-02-21T10:40:25;9.60;99.90
29713;DHT22;16623;53.632;10.016;2024-02-21T10:42:57;9.50;99.90
29713;DHT22;16623;53.632;10.016;2024-02-21T10:45:32;9.50;99.90
29713;DHT22;16623;53.632;10.016;2024-02-21T10:48:12;9.50;99.90
29713;DHT22;16623;53.632;10.016;2024-02-21T10:51:07;9.60;99.90
29713;DHT22;16623;53.632;10.016;2024-02-21T10:56:25;9.60;99.90
29713;DHT22;16623;53.632;10.016;2024-02-21T10:58:52;9.70;99.90
29713;DHT22;16623;53.632;10.016;2024-02-21T11:01:19;9.70;99.90
29713;DHT22;16623;53.632;10.016;2024-02-21T11:03:46;9.70;99.90
29713;DHT22;16623;53.632;10.016;2024-02-21T11:06:13;9.70;99.90
29713;DHT22;16623;53.632;10.016;2024-02-21T11:08:39;9.60;99.90
29713;DHT22;16623;53.632;10.016;2024-02-21T11:11:05;9.60;99.90
29713;DHT22;16623;53.632;10.016;2024-02-21T11:13:37;9.60;99.90
29713;DHT22;16623;53.632;10.016;2024-02-21T11:16:10;9.60;99.90
29713;DHT22;16623;53.632;10.016;2024-02-21T11:18:39;9.60;99.90
29713;DHT22;16623;53.632;10.016;2024-02-21T11:21:05;9.60;99.90
29713;DHT22;16623;53.632;10.016;2024-02-21T11:23:31;9.60;99.90
29713;DHT22;16623;53.632;10.016;2024-02-21T11:26:10;9.60;99.90
29713;DHT22;16623;53.632;10.016;2024-02-21T11:28:36;9.60;99.90
29713;DHT22;16623;53.632;10.016;2024-02-21T11:31:13;9.60;99.90
29713;DHT22;16623;53.632;10.016;2024-02-21T11:33:42;9.60;99.90
29713;DHT22;16623;53.632;10.016;2024-02-21T11:36:09;9.70;99.90
29713;DHT22;16623;53.632;10.016;2024-02-21T11:38:35;9.80;99.90
29713;DHT22;16623;53.632;10.016;2024-02-21T11:41:01;9.80;99.90
29713;DHT22;16623;53.632;10.016;2024-02-21T11:43:27;9.80;99.90
29713;DHT22;16623;53.632;10.016;2024-02-21T11:46:00;9.80;99.90
29713;DHT22;16623;53.632;10.016;2024-02-21T11:48:26;9.70;99.90
29713;DHT22;16623;53.632;10.016;2024-02-21T11:50:53;9.70;99.90
29713;DHT22;16623;53.632;10.016;2024-02-21T11:53:20;9.80;99.90
29713;DHT22;16623;53.632;10.016;2024-02-21T11:55:46;9.70;99.90
29713;DHT22;16623;53.632;10.016;2024-02-21T11:58:15;9.70;99.90
29713;DHT22;16623;53.632;10.016;2024-02-21T12:00:41;9.60;99.90
29713;DHT22;16623;53.632;10.016;2024-02-21T12:03:07;9.60;99.90
29713;DHT22;16623;53.632;10.016;2024-02-21T12:05:33;9.60;99.90
29713;DHT22;16623;53.632;10.016;2024-02-21T12:07:59;9.60;99.90
29713;DHT22;16623;53.632;10.016;2024-02-21T12:10:28;9.70;99.90
29713;DHT22;16623;53.632;10.016;2024-02-21T12:12:53;9.60;99.90
29713;DHT22;16623;53.632;10.016;2024-02-21T12:15:23;9.60;99.90
29713;DHT22;16623;53.632;10.016;2024-02-21T12:17:49;9.60;99.90
29713;DHT22;16623;53.632;10.016;2024-02-21T12:20:17;9.60;99.90
29713;DHT22;16623;53.632;10.016;2024-02-21T12:22:43;9.60;99.90
29713;DHT22;16623;53.632;10.016;2024-02-21T12:25:23;9.70;99.90
29713;DHT22;16623;53.632;10.016;2024-02-21T12:27:51;9.60;99.90
29713;DHT22;16623;53.632;10.016;2024-02-21T12:30:17;9.70;99.90
29713;DHT22;16623;53.632;10.016;2024-02-21T12:32:43;9.70;99.90
29713;DHT22;16623;53.632;10.016;2024-02-21T12:35:09;9.70;99.90
29713;DHT22;16623;53.632;10.016;2024-02-21T12:37:34;9.70;99.90
29713;DHT22;16623;53.632;10.016;2024-02-21T12:40:08;9.70;99.90
29713;DHT22;16623;53.632;10.016;2024-02-21T12:42:35;9.70;99.90
29713;DHT22;16623;53.632;10.016;2024-02-21T12:45:03;9.70;99.90
29713;DHT22;16623;53.632;10.016;2024-02-21T12:47:30;9.60;99.90
29713;DHT22;16623;53.632;10.016;2024-02-21T12:49:56;9.50;99.90
29713;DHT22;16623;53.632;10.016;2024-02-21T12:52:21;9.50;99.90
29713;DHT22;16623;53.632;10.016;2024-02-21T12:54:47;9.50;99.90
29713;DHT22;16623;53.632;10.016;2024-02-21T12:57:13;9.40;99.90
29713;DHT22;16623;53.632;10.016;2024-02-21T12:59:38;9.40;99.90
29713;DHT22;16623;53.632;10.016;2024-02-21T13:02:04;9.50;99.90
29713;DHT22;16623;53.632;10.016;2024-02-21T13:04:30;9.40;99.90
29713;DHT22;16623;53.632;10.016;2024-02-21T13:06:55;9.40;99.90
29713;DHT22;16623;53.632;10.016;2024-02-21T13:09:21;9.40;99.90
29713;DHT22;16623;53.632;10.016;2024-02-21T13:11:47;9.40;99.90
29713;DHT22;16623;53.632;10.016;2024-02-21T13:14:12;9.50;99.90
29713;DHT22;16623;53.632;10.016;2024-02-21T13:16:38;9.30;99.90
29713;DHT22;16623;53.632;10.016;2024-02-21T13:19:07;9.50;99.90
29713;DHT22;16623;53.632;10.016;2024-02-21T13:21:36;9.50;99.90
29713;DHT22;16623;53.632;10.016;2024-02-21T13:24:02;9.60;99.90
29713;DHT22;16623;53.632;10.016;2024-02-21T13:26:28;9.60;99.90
29713;DHT22;16623;53.632;10.016;2024-02-21T13:28:54;9.70;99.90
29713;DHT22;16623;53.632;10.016;2024-02-21T13:31:20;9.70;99.90
29713;DHT22;16623;53.632;10.016;2024-02-21T13:33:46;9.80;99.90
29713;DHT22;16623;53.632;10.016;2024-02-21T13:36:11;9.80;99.90
29713;DHT22;16623;53.632;10.016;2024-02-21T13:38:40;9.90;99.90
29713;DHT22;16623;53.632;10.016;2024-02-21T13:41:06;10.00;99.90
29713;DHT22;16623;53.632;10.016;2024-02-21T13:43:32;10.00;99.90
29713;DHT22;16623;53.632;10.016;2024-02-21T13:46:01;10.10;99.90
29713;DHT22;16623;53.632;10.016;2024-02-21T13:48:35;10.20;99.90
29713;DHT22;16623;53.632;10.016;2024-02-21T13:51:01;10.10;99.90
29713;DHT22;16623;53.632;10.016;2024-02-21T13:53:29;10.10;99.90
29713;DHT22;16623;53.632;10.016;2024-02-21T13:55:55;10.10;99.90
29713;DHT22;16623;53.632;10.016;2024-02-21T13:58:20;10.00;99.90
29713;DHT22;16623;53.632;10.016;2024-02-21T14:00:47;10.10;99.90
29713;DHT22;16623;53.632;10.016;2024-02-21T14:03:12;10.10;99.90
29713;DHT22;16623;53.632;10.016;2024-02-21T14:05:38;10.20;99.90
29713;DHT22;16623;53.632;10.016;2024-02-21T14:08:06;10.30;99.90
29713;DHT22;16623;53.632;10.016;2024-02-21T14:10:31;10.30;99.90
29713;DHT22;16623;53.632;10.016;2024-02-21T14:12:57;10.30;99.90
29713;DHT22;16623;53.632;10.016;2024-02-21T14:15:23;10.40;99.90
29713;DHT22;16623;53.632;10.016;2024-02-21T14:17:49;10.30;99.90
29713;DHT22;16623;53.632;10.016;2024-02-21T14:20:14;10.30;99.90
29713;DHT22;16623;53.632;10.016;2024-02-21T14:22:40;10.40;99.90
29713;DHT22;16623;53.632;10.016;2024-02-21T14:25:06;10.30;99.90
29713;DHT22;16623;53.632;10.016;2024-02-21T14:27:32;10.30;99.90
29713;DHT22;16623;53.632;10.016;2024-02-21T14:29:57;10.30;99.90
29713;DHT22;16623;53.632;10.016;2024-02-21T14:32:23;10.30;99.90
29713;DHT22;16623;53.632;10.016;2024-02-21T14:34:49;10.30;99.90
29713;DHT22;16623;53.632;10.016;2024-02-21T14:37:15;10.40;99.90
29713;DHT22;16623;53.632;10.016;2024-02-21T14:39:41;10.30;99.90
29713;DHT22;16623;53.632;10.016;2024-02-21T14:42:07;10.40;99.90
29713;DHT22;16623;53.632;10.016;2024-02-21T14:44:35;11.10;99.90
29713;DHT22;16623;53.632;10.016;2024-02-21T14:47:02;10.40;99.90
29713;DHT22;16623;53.632;10.016;2024-02-21T14:49:29;10.40;99.90
29713;DHT22;16623;53.632;10.016;2024-02-21T14:51:54;10.40;99.90
29713;DHT22;16623;53.632;10.016;2024-02-21T14:54:20;10.40;99.90
29713;DHT22;16623;53.632;10.016;2024-02-21T14:56:45;10.40;99.90
29713;DHT22;16623;53.632;10.016;2024-02-21T14:59:12;10.40;99.90
29713;DHT22;16623;53.632;10.016;2024-02-21T15:01:37;10.30;99.90
29713;DHT22;16623;53.632;10.016;2024-02-21T15:04:04;10.40;99.90
29713;DHT22;16623;53.632;10.016;2024-02-21T15:06:29;10.30;99.90
29713;DHT22;16623;53.632;10.016;2024-02-21T15:08:57;10.40;99.90
29713;DHT22;16623;53.632;10.016;2024-02-21T15:11:24;10.40;99.90
29713;DHT22;16623;53.632;10.016;2024-02-21T15:13:49;11.40;99.90
29713;DHT22;16623;53.632;10.016;2024-02-21T15:16:15;10.30;99.90
29713;DHT22;16623;53.632;10.016;2024-02-21T15:18:46;10.30;99.90
29713;DHT22;16623;53.632;10.016;2024-02-21T15:21:12;10.30;99.90
29713;DHT22;16623;53.632;10.016;2024-02-21T15:23:40;10.30;99.90
29713;DHT22;16623;53.632;10.016;2024-02-21T15:26:06;10.30;99.90
29713;DHT22;16623;53.632;10.016;2024-02-21T15:28:31;10.30;99.90
29713;DHT22;16623;53.632;10.016;2024-02-21T15:30:57;10.30;99.90
29713;DHT22;16623;53.632;10.016;2024-02-21T15:33:23;10.20;99.90
29713;DHT22;16623;53.632;10.016;2024-02-21T15:35:49;10.20;99.90
29713;DHT22;16623;53.632;10.016;2024-02-21T15:38:15;10.20;99.90
29713;DHT22;16623;53.632;10.016;2024-02-21T15:40:41;10.10;99.90